Time;durP1;ratioP1;P1;durP2;ratioP2;P2;SDS_P1;SDS_P2;PMS_P1;PMS_P2;Temp;Humidity;BMP_temperature;BMP_pressure;BME280_temperature;BME280_humidity;BME280_pressure;Samples;Min_cycle;Max_cycle;Signal;HPM_P1;HPM_P2
2023/12/01 00:01:45;;;;;;;17.30;12.93;;;;;;;19.37;41.31;98675.13;4988982;28;20173;-74
2023/12/01 00:04:10;;;;;;;21.33;13.27;;;;;;;19.34;41.86;98676.00;4975251;28;20648;-74
2023/12/01 00:06:36;;;;;;;19.10;15.17;;;;;;;19.28;42.50;98669.13;4972396;28;20832;-74
2023/12/01 00:09:01;;;;;;;18.63;13.83;;;;;;;19.21;42.71;98672.00;4990933;28;20639;-75
2023/12/01 00:11:27;;;;;;;18.60;13.90;;;;;;;19.10;43.14;98674.16;5005249;28;20176;-74
2023/12/01 00:13:52;;;;;;;20.20;12.73;;;;;;;19.06;43.64;98664.00;4991385;28;20200;-74
2023/12/01 00:16:18;;;;;;;17.37;13.00;;;;;;;19.01;43.88;98656.69;4991058;28;20201;-74
2023/12/01 00:18:43;;;;;;;18.20;13.10;;;;;;;18.92;44.29;98664.94;4991013;28;20180;-75
2023/12/01 00:21:10;;;;;;;15.70;11.50;;;;;;;18.94;44.43;98653.91;4991521;28;20189;-74
2023/12/01 00:23:35;;;;;;;13.97;11.00;;;;;;;18.90;44.53;98667.41;4975824;28;20181;-74
2023/12/01 00:26:02;;;;;;;15.93;11.43;;;;;;;18.88;44.92;98661.31;4975444;28;21135;-74
2023/12/01 00:28:27;;;;;;;15.30;11.67;;;;;;;18.79;45.46;98678.16;4978552;28;20197;-74
2023/12/01 00:30:53;;;;;;;17.10;11.83;;;;;;;18.84;46.42;98676.88;4997802;28;20447;-75
2023/12/01 00:33:18;;;;;;;18.10;11.70;;;;;;;18.71;45.78;98672.94;4975311;28;20759;-77
2023/12/01 00:35:44;;;;;;;18.33;10.90;;;;;;;18.79;46.32;98683.88;4991689;28;20564;-76
2023/12/01 00:38:09;;;;;;;15.37;11.60;;;;;;;18.88;45.99;98686.25;4977083;28;20656;-77
2023/12/01 00:40:34;;;;;;;18.17;12.60;;;;;;;18.83;46.32;98684.66;4982391;28;20199;-76
2023/12/01 00:43:01;;;;;;;12.97;10.80;;;;;;;18.86;46.23;98672.34;5010663;28;20157;-75
2023/12/01 00:45:26;;;;;;;15.53;11.03;;;;;;;18.86;46.32;98660.91;4995280;28;20179;-77
2023/12/01 00:47:52;;;;;;;14.80;11.17;;;;;;;18.85;46.71;98678.50;5018785;28;20436;-76
2023/12/01 00:50:18;;;;;;;18.23;10.63;;;;;;;18.78;47.24;98679.41;5005559;28;20193;-75
2023/12/01 00:52:43;;;;;;;13.40;10.60;;;;;;;18.71;47.17;98676.56;4970638;28;20178;-75
2023/12/01 00:55:09;;;;;;;14.93;11.47;;;;;;;18.73;47.74;98679.03;4954559;28;20197;-76
2023/12/01 00:57:34;;;;;;;14.00;10.80;;;;;;;18.72;47.83;98680.25;4990229;28;20691;-76
2023/12/01 01:00:00;;;;;;;13.93;9.97;;;;;;;18.69;47.58;98681.09;4955572;28;20578;-76
2023/12/01 01:02:26;;;;;;;13.13;10.20;;;;;;;18.68;47.92;98683.16;4989517;28;20177;-76
2023/12/01 01:04:51;;;;;;;12.30;9.30;;;;;;;18.67;48.57;98684.38;5003358;28;20193;-76
2023/12/01 01:07:16;;;;;;;12.40;9.60;;;;;;;18.67;48.01;98690.09;4985735;28;20660;-76
2023/12/01 01:09:42;;;;;;;12.90;9.07;;;;;;;18.65;48.25;98680.31;4973799;28;20201;-76
2023/12/01 01:12:07;;;;;;;12.37;9.93;;;;;;;18.64;48.40;98682.38;4989322;28;20204;-75
2023/12/01 01:14:33;;;;;;;11.70;9.77;;;;;;;18.64;48.70;98685.22;5004648;28;20208;-75
2023/12/01 01:16:58;;;;;;;13.57;10.37;;;;;;;18.60;48.80;98695.88;4992032;28;20227;-76
2023/12/01 01:19:24;;;;;;;15.33;10.30;;;;;;;18.59;48.92;98704.84;5026722;28;20171;-76
2023/12/01 01:21:49;;;;;;;13.60;9.97;;;;;;;18.60;49.14;98703.63;4970514;28;20189;-76
2023/12/01 01:24:15;;;;;;;11.83;9.87;;;;;;;18.55;48.99;98699.16;4955086;28;20180;-76
2023/12/01 01:26:40;;;;;;;11.73;8.47;;;;;;;18.56;48.95;98705.72;4960673;28;20237;-76
2023/12/01 01:29:05;;;;;;;13.47;9.10;;;;;;;18.55;49.03;98693.47;5003031;28;20203;-76
2023/12/01 01:31:31;;;;;;;13.10;8.70;;;;;;;18.53;49.38;98690.22;4992626;28;20215;-76
2023/12/01 01:33:57;;;;;;;10.47;8.27;;;;;;;18.52;49.29;98697.13;4990879;28;20249;-76
2023/12/01 01:36:22;;;;;;;12.43;9.63;;;;;;;18.53;49.83;98701.66;4974527;28;20558;-76
2023/12/01 01:38:48;;;;;;;11.00;9.33;;;;;;;18.52;49.36;98705.72;4973445;28;20192;-76
2023/12/01 01:41:13;;;;;;;11.87;8.77;;;;;;;18.51;49.21;98715.53;4990298;28;20255;-76
2023/12/01 01:43:39;;;;;;;11.83;8.07;;;;;;;18.51;49.52;98721.25;4990417;28;20193;-76
2023/12/01 01:46:09;;;;;;;11.90;8.60;;;;;;;18.54;49.98;98719.59;4989296;28;20189;-76
2023/12/01 01:48:34;;;;;;;13.17;10.37;;;;;;;18.51;49.95;98735.53;4958589;28;20578;-76
2023/12/01 01:51:00;;;;;;;15.23;10.20;;;;;;;18.55;49.47;98730.59;4990717;28;20415;-76
2023/12/01 01:53:26;;;;;;;12.03;8.80;;;;;;;18.59;49.51;98742.84;4973480;28;20185;-76
2023/12/01 01:55:52;;;;;;;12.00;9.20;;;;;;;18.54;49.52;98740.41;4956835;28;20196;-76
2023/12/01 01:58:17;;;;;;;11.17;8.60;;;;;;;18.53;49.47;98744.53;4990032;28;21109;-76
2023/12/01 02:00:49;;;;;;;12.10;9.40;;;;;;;18.55;49.64;98735.50;4988872;28;20192;-76
2023/12/01 02:03:18;;;;;;;11.67;8.63;;;;;;;18.51;49.78;98741.25;4990774;28;20189;-76
2023/12/01 02:05:47;;;;;;;16.50;8.47;;;;;;;18.52;50.28;98737.16;4958022;28;21093;-76
2023/12/01 02:08:22;;;;;;;15.60;9.00;;;;;;;18.50;50.18;98735.94;4975123;28;21076;-78
2023/12/01 02:10:48;;;;;;;9.87;8.00;;;;;;;18.48;49.79;98727.81;5007069;28;20416;-75
2023/12/01 02:13:14;;;;;;;12.33;9.27;;;;;;;18.47;50.00;98726.16;4990719;28;20412;-75
2023/12/01 02:15:41;;;;;;;13.10;8.90;;;;;;;18.45;50.77;98725.78;4989789;28;20193;-76
2023/12/01 02:18:24;;;;;;;10.23;8.50;;;;;;;18.45;50.73;98736.38;4958215;28;20911;-76
2023/12/01 02:20:50;;;;;;;9.97;8.10;;;;;;;18.47;50.29;98731.88;4962741;28;20440;-76
2023/12/01 02:23:16;;;;;;;11.10;8.67;;;;;;;18.43;50.22;98733.97;4971187;28;20504;-76
2023/12/01 02:25:41;;;;;;;10.33;7.80;;;;;;;18.43;50.69;98748.25;4980824;28;21064;-76
2023/12/01 02:28:07;;;;;;;11.47;8.43;;;;;;;18.41;50.56;98745.00;5009734;28;20706;-75
2023/12/01 02:30:32;;;;;;;9.10;7.60;;;;;;;18.44;50.78;98758.44;4996912;28;20564;-75
2023/12/01 02:32:57;;;;;;;10.47;8.33;;;;;;;18.46;50.54;98758.03;4994833;28;20659;-76
2023/12/01 02:35:29;;;;;;;11.20;8.03;;;;;;;18.44;50.49;98764.16;4977296;28;20181;-76
2023/12/01 02:37:57;;;;;;;11.00;7.90;;;;;;;18.47;50.38;98762.50;4979683;28;20215;-76
2023/12/01 02:40:23;;;;;;;11.17;8.20;;;;;;;18.44;50.79;98764.16;4976262;28;20471;-76
2023/12/01 02:42:49;;;;;;;11.10;8.27;;;;;;;18.45;50.72;98762.94;5022484;28;20518;-76
2023/12/01 02:45:15;;;;;;;11.17;8.03;;;;;;;18.45;50.29;98754.34;5002737;28;20440;-74
2023/12/01 02:47:40;;;;;;;9.80;8.07;;;;;;;18.44;50.92;98747.03;4985861;28;20629;-74
2023/12/01 02:50:09;;;;;;;10.90;8.10;;;;;;;18.43;50.71;98738.84;5013193;28;20964;-74
2023/12/01 02:52:36;;;;;;;9.97;7.97;;;;;;;18.41;51.33;98753.56;5013354;28;20271;-74
2023/12/01 02:55:02;;;;;;;10.40;8.43;;;;;;;18.40;51.07;98753.97;5029159;28;20431;-74
2023/12/01 02:57:27;;;;;;;10.47;8.10;;;;;;;18.40;51.10;98760.50;4995948;28;20473;-74
2023/12/01 02:59:53;;;;;;;10.23;8.40;;;;;;;18.38;50.92;98754.41;4992066;28;20173;-74
2023/12/01 03:02:18;;;;;;;9.37;7.20;;;;;;;18.35;51.95;98754.41;4978919;28;20177;-74
2023/12/01 03:04:44;;;;;;;9.10;7.27;;;;;;;18.34;51.43;98744.22;4976683;28;20200;-74
2023/12/01 03:07:09;;;;;;;10.80;7.50;;;;;;;18.34;51.69;98727.91;4975099;28;20212;-74
2023/12/01 03:09:34;;;;;;;8.70;7.20;;;;;;;18.34;51.37;98721.38;4993579;28;20675;-74
2023/12/01 03:12:00;;;;;;;11.97;8.00;;;;;;;18.31;51.50;98725.03;4994182;28;20177;-74
2023/12/01 03:14:25;;;;;;;8.87;6.97;;;;;;;18.36;51.38;98725.44;4993286;28;20185;-74
2023/12/01 03:16:51;;;;;;;9.70;7.77;;;;;;;18.38;51.42;98737.28;4977617;28;20192;-74
2023/12/01 03:19:16;;;;;;;9.70;7.90;;;;;;;18.38;51.30;98734.41;4993872;28;20161;-74
2023/12/01 03:21:42;;;;;;;9.90;7.53;;;;;;;18.33;51.37;98740.56;4992999;28;20251;-74
2023/12/01 03:24:09;;;;;;;8.80;7.20;;;;;;;18.34;51.12;98741.34;5004811;28;20173;-74
2023/12/01 03:26:37;;;;;;;8.00;7.10;;;;;;;18.35;51.37;98743.81;5009574;28;21182;-74
2023/12/01 03:29:03;;;;;;;9.70;7.27;;;;;;;18.35;51.35;98738.09;4964147;28;20971;-74
2023/12/01 03:31:28;;;;;;;9.40;7.50;;;;;;;18.32;51.78;98727.47;4960433;28;20429;-74
2023/12/01 03:33:54;;;;;;;8.50;6.67;;;;;;;18.32;51.43;98727.47;4974693;28;20241;-74
2023/12/01 03:36:21;;;;;;;8.00;7.10;;;;;;;18.30;51.71;98724.22;4992050;28;20185;-74
2023/12/01 03:38:47;;;;;;;9.43;7.30;;;;;;;18.30;51.60;98723.38;4993958;28;20203;-74
2023/12/01 03:41:12;;;;;;;9.60;6.90;;;;;;;18.29;52.05;98728.31;4992680;28;21163;-74
2023/12/01 03:43:38;;;;;;;9.00;7.20;;;;;;;18.31;51.56;98742.97;4976876;28;20177;-74
2023/12/01 03:46:03;;;;;;;8.23;6.87;;;;;;;18.29;51.54;98745.44;4987688;28;20197;-74
2023/12/01 03:48:30;;;;;;;11.67;7.77;;;;;;;18.29;51.55;98745.44;4973535;28;20210;-74
2023/12/01 03:50:56;;;;;;;9.63;7.13;;;;;;;18.25;51.69;98743.81;4973206;28;20276;-74
2023/12/01 03:53:21;;;;;;;9.13;6.70;;;;;;;18.31;51.53;98747.91;4973661;28;20432;-74
2023/12/01 03:55:47;;;;;;;9.53;7.10;;;;;;;18.34;51.76;98745.03;5001187;28;20211;-74
2023/12/01 03:58:12;;;;;;;9.43;7.33;;;;;;;18.30;51.99;98735.63;4975023;28;20188;-74
2023/12/01 04:00:37;;;;;;;9.47;7.40;;;;;;;18.30;52.01;98738.50;4992410;28;20181;-74
2023/12/01 04:03:03;;;;;;;9.40;7.23;;;;;;;18.33;51.47;98737.72;5000735;28;20637;-75
2023/12/01 04:05:28;;;;;;;8.47;6.20;;;;;;;18.31;51.62;98748.69;4992291;28;20661;-74
2023/12/01 04:07:54;;;;;;;8.53;6.97;;;;;;;18.34;51.48;98752.78;4993179;28;20189;-74
2023/12/01 04:10:19;;;;;;;11.10;7.83;;;;;;;18.33;51.64;98751.16;4994789;28;20177;-74
2023/12/01 04:12:45;;;;;;;8.13;6.17;;;;;;;18.31;51.46;98745.03;5009776;28;20184;-74
2023/12/01 04:15:15;;;;;;;8.83;6.93;;;;;;;18.28;51.82;98732.41;4992790;28;20239;-74
2023/12/01 04:17:42;;;;;;;8.77;6.70;;;;;;;18.33;51.89;98734.03;4976354;28;20188;-74
2023/12/01 04:20:20;;;;;;;8.60;6.33;;;;;;;18.31;51.81;98730.75;5009285;28;20455;-74
2023/12/01 04:22:51;;;;;;;9.07;6.10;;;;;;;18.30;52.10;98738.50;4993570;28;20812;-74
2023/12/01 04:25:16;;;;;;;10.57;6.70;;;;;;;18.32;51.86;98736.06;4996170;28;20536;-75
2023/12/01 04:27:43;;;;;;;6.97;6.27;;;;;;;18.34;51.79;98742.19;4992705;28;20416;-74
2023/12/01 04:30:14;;;;;;;7.63;6.23;;;;;;;18.27;51.85;98739.31;5009860;28;20339;-74
2023/12/01 04:32:52;;;;;;;8.03;6.57;;;;;;;18.27;52.09;98730.75;5006562;28;20495;-74
2023/12/01 04:35:21;;;;;;;6.80;5.90;;;;;;;18.23;52.19;98729.97;4967649;28;20474;-73
2023/12/01 04:37:46;;;;;;;7.20;6.00;;;;;;;18.23;51.86;98715.69;4969371;28;20449;-74
2023/12/01 04:40:14;;;;;;;7.50;6.00;;;;;;;18.24;52.66;98707.94;4970294;28;20406;-74
2023/12/01 04:42:44;;;;;;;8.00;7.10;;;;;;;18.24;51.97;98714.47;4985374;28;20213;-74
2023/12/01 04:45:13;;;;;;;8.57;6.57;;;;;;;18.28;52.30;98725.84;4953590;28;20430;-74
2023/12/01 04:47:42;;;;;;;7.73;6.57;;;;;;;18.28;52.13;98726.69;4988077;28;20426;-74
2023/12/01 04:50:12;;;;;;;7.20;6.20;;;;;;;18.24;52.42;98703.03;4961465;28;20480;-74
2023/12/01 04:52:42;;;;;;;9.43;6.67;;;;;;;18.25;51.94;98721.78;4958411;28;20431;-74
2023/12/01 04:55:15;;;;;;;10.03;5.73;;;;;;;18.25;52.12;98743.81;4961382;28;20453;-74
2023/12/01 04:57:40;;;;;;;7.10;5.60;;;;;;;18.23;52.09;98740.59;4969797;28;20457;-74
2023/12/01 05:00:19;;;;;;;8.00;5.90;;;;;;;18.23;52.72;98734.88;4953562;28;20457;-74
2023/12/01 05:03:02;;;;;;;6.87;5.30;;;;;;;18.24;52.45;98745.88;4960802;28;20197;-74
2023/12/01 05:05:29;;;;;;;7.53;5.50;;;;;;;18.26;52.24;98745.47;4951966;29;20523;-74
2023/12/01 05:07:57;;;;;;;8.43;6.00;;;;;;;18.24;52.23;98748.75;4969842;28;20442;-74
2023/12/01 05:10:23;;;;;;;7.63;6.43;;;;;;;18.24;52.29;98760.16;4968107;28;20461;-73
2023/12/01 05:12:50;;;;;;;8.40;5.90;;;;;;;18.23;52.69;98752.84;4945336;29;20467;-74
2023/12/01 05:15:20;;;;;;;8.83;6.43;;;;;;;18.27;52.51;98744.25;4958667;28;20964;-74
2023/12/01 05:17:47;;;;;;;7.33;6.23;;;;;;;18.34;52.29;98756.47;4970737;28;20796;-74
2023/12/01 05:20:15;;;;;;;7.60;6.10;;;;;;;18.29;52.34;98751.16;4955843;28;20946;-74
2023/12/01 05:22:51;;;;;;;8.83;5.50;;;;;;;18.28;52.52;98754.44;4937393;28;20443;-74
2023/12/01 05:25:17;;;;;;;6.87;5.70;;;;;;;18.33;52.37;98759.75;4939829;28;20445;-74
2023/12/01 05:27:45;;;;;;;6.67;5.70;;;;;;;18.35;52.27;98774.41;4954064;28;20441;-74
2023/12/01 05:30:12;;;;;;;6.43;5.83;;;;;;;18.27;52.27;98770.75;4958877;28;20493;-74
2023/12/01 05:32:39;;;;;;;6.97;5.70;;;;;;;18.29;52.14;98774.00;4958430;28;20427;-74
2023/12/01 05:35:06;;;;;;;8.23;6.10;;;;;;;18.27;52.46;98765.03;4985740;28;20559;-74
2023/12/01 05:37:31;;;;;;;7.00;5.67;;;;;;;18.28;52.38;98765.84;4988298;28;20459;-74
2023/12/01 05:39:56;;;;;;;7.30;5.40;;;;;;;18.29;52.30;98774.00;4989004;28;20426;-74
2023/12/01 05:42:22;;;;;;;6.87;5.40;;;;;;;18.35;52.19;98782.97;4987016;28;20185;-74
2023/12/01 05:44:47;;;;;;;6.43;5.30;;;;;;;18.35;52.04;98780.94;4987956;28;20185;-74
2023/12/01 05:47:13;;;;;;;6.57;5.60;;;;;;;18.34;52.22;98778.50;4986125;28;20182;-74
2023/12/01 05:49:38;;;;;;;6.40;5.03;;;;;;;18.33;52.24;98789.13;4972691;28;20557;-74
2023/12/01 05:52:03;;;;;;;7.80;5.83;;;;;;;18.31;52.59;98785.81;4986247;28;20633;-74
2023/12/01 05:54:29;;;;;;;7.07;5.30;;;;;;;18.33;52.28;98799.72;4973529;28;20174;-74
2023/12/01 05:56:55;;;;;;;6.47;5.47;;;;;;;18.30;52.30;98791.94;4972892;28;20193;-73
2023/12/01 05:59:20;;;;;;;6.60;5.33;;;;;;;18.28;52.50;98800.97;4972387;28;20204;-73
2023/12/01 06:01:46;;;;;;;6.97;5.43;;;;;;;18.31;52.83;98800.13;4959352;28;20442;-74
2023/12/01 06:04:13;;;;;;;6.13;5.33;;;;;;;18.24;52.57;98797.31;5008580;28;20194;-74
2023/12/01 06:06:39;;;;;;;6.73;4.83;;;;;;;18.23;52.51;98792.81;4976155;28;20241;-74
2023/12/01 06:09:07;;;;;;;6.70;5.30;;;;;;;18.24;52.83;98787.91;4992728;28;21035;-73
2023/12/01 06:11:32;;;;;;;7.20;5.50;;;;;;;18.26;52.53;98796.91;4977748;28;20189;-74
2023/12/01 06:13:58;;;;;;;7.60;5.40;;;;;;;18.23;52.58;98801.41;4974586;28;20447;-74
2023/12/01 06:16:23;;;;;;;6.57;5.10;;;;;;;18.22;52.66;98799.75;4976720;28;20193;-74
2023/12/01 06:18:49;;;;;;;7.10;5.40;;;;;;;18.27;52.97;98813.59;4964964;28;20189;-74
2023/12/01 06:21:14;;;;;;;6.33;5.00;;;;;;;18.24;52.47;98816.47;5012665;28;20970;-74
2023/12/01 06:23:40;;;;;;;7.20;5.90;;;;;;;18.27;52.55;98807.88;4989558;28;20196;-74
2023/12/01 06:26:05;;;;;;;6.90;5.33;;;;;;;18.30;52.37;98801.34;4976947;28;20169;-74
2023/12/01 06:28:33;;;;;;;6.10;4.87;;;;;;;18.25;52.60;98798.09;4977188;28;20264;-74
2023/12/01 06:30:59;;;;;;;6.33;5.53;;;;;;;18.24;52.49;98827.91;4957333;28;20194;-74
2023/12/01 06:33:26;;;;;;;8.03;5.87;;;;;;;18.26;52.70;98828.31;4989633;28;20476;-74
2023/12/01 06:35:52;;;;;;;5.93;4.97;;;;;;;18.28;52.37;98835.25;4992920;28;20564;-74
2023/12/01 06:38:17;;;;;;;6.50;5.10;;;;;;;18.26;53.11;98829.13;4994816;28;20427;-74
2023/12/01 06:40:43;;;;;;;5.73;4.70;;;;;;;18.30;53.00;98838.50;4994837;28;20185;-74
2023/12/01 06:43:11;;;;;;;5.50;4.60;;;;;;;18.31;52.61;98842.97;4977497;28;20189;-74
2023/12/01 06:45:37;;;;;;;5.90;5.00;;;;;;;18.33;52.36;98837.69;4972650;28;20194;-74
2023/12/01 06:48:03;;;;;;;6.20;5.23;;;;;;;18.36;52.59;98825.44;4967288;28;20468;-74
2023/12/01 06:50:28;;;;;;;5.90;4.80;;;;;;;18.34;52.71;98833.59;4975116;28;20479;-74
2023/12/01 06:52:55;;;;;;;6.60;5.27;;;;;;;18.34;52.22;98830.75;4990632;28;20544;-74
2023/12/01 06:55:20;;;;;;;6.37;4.97;;;;;;;18.36;52.46;98834.00;4992491;28;20173;-74
2023/12/01 06:57:47;;;;;;;6.10;5.07;;;;;;;18.34;52.73;98842.19;4990310;28;20445;-74
2023/12/01 07:00:29;;;;;;;6.33;4.73;;;;;;;18.35;52.57;98846.66;4975428;28;20177;-73
2023/12/01 07:02:59;;;;;;;6.67;5.50;;;;;;;18.35;52.57;98831.56;4974859;28;20949;-74
2023/12/01 07:05:27;;;;;;;7.27;5.17;;;;;;;18.34;52.86;98825.03;4992114;28;20412;-74
2023/12/01 07:07:53;;;;;;;6.00;4.57;;;;;;;18.33;52.72;98832.00;4975972;28;20433;-74
2023/12/01 07:10:19;;;;;;;6.33;4.90;;;;;;;18.36;52.71;98831.13;4974780;28;20479;-74
2023/12/01 07:12:45;;;;;;;6.90;5.20;;;;;;;18.37;52.21;98832.75;4976037;28;20614;-74
2023/12/01 07:15:13;;;;;;;6.10;4.93;;;;;;;18.35;52.72;98837.25;4958828;28;20452;-74
2023/12/01 07:17:39;;;;;;;5.90;4.53;;;;;;;18.36;52.97;98836.84;4975602;28;20173;-74
2023/12/01 07:20:13;;;;;;;6.00;4.60;;;;;;;18.37;52.55;98855.63;4976199;28;20421;-74
2023/12/01 07:22:43;;;;;;;6.63;4.63;;;;;;;18.34;52.48;98867.06;4997574;28;20177;-74
2023/12/01 07:25:21;;;;;;;6.70;5.07;;;;;;;18.35;52.52;98871.53;4973147;28;20437;-74
2023/12/01 07:28:08;;;;;;;6.00;5.03;;;;;;;18.34;52.86;98878.50;4996646;28;20515;-74
2023/12/01 07:30:33;;;;;;;5.60;4.33;;;;;;;18.34;52.36;98862.19;5013191;28;20520;-74
2023/12/01 07:33:00;;;;;;;5.20;4.33;;;;;;;18.36;52.39;98856.84;4991319;28;20425;-74
2023/12/01 07:35:25;;;;;;;5.40;4.70;;;;;;;18.32;52.76;98858.91;4976402;28;20184;-74
2023/12/01 07:37:52;;;;;;;6.00;4.87;;;;;;;18.31;52.56;98851.53;4993784;28;20420;-74
2023/12/01 07:40:21;;;;;;;6.00;4.97;;;;;;;18.32;52.80;98843.78;5009697;28;20173;-74
2023/12/01 07:42:51;;;;;;;5.63;4.57;;;;;;;18.30;52.81;98838.50;4993033;28;20849;-74
2023/12/01 07:45:19;;;;;;;4.80;4.00;;;;;;;18.29;52.78;98842.56;4992498;28;20411;-74
2023/12/01 07:47:45;;;;;;;4.33;3.93;;;;;;;18.29;53.12;98853.19;4976960;28;20455;-74
2023/12/01 07:50:11;;;;;;;6.07;4.80;;;;;;;18.30;52.63;98849.91;4978473;28;20485;-74
2023/12/01 07:52:36;;;;;;;5.23;4.40;;;;;;;18.30;52.90;98849.09;4995058;28;20439;-74
2023/12/01 07:55:03;;;;;;;5.73;4.10;;;;;;;18.32;52.71;98853.19;5010341;28;20188;-74
2023/12/01 07:57:28;;;;;;;5.33;4.40;;;;;;;18.26;53.12;98869.09;4993775;28;20191;-74
2023/12/01 07:59:53;;;;;;;5.50;4.40;;;;;;;18.29;52.60;98870.31;4994410;28;20416;-74
2023/12/01 08:02:19;;;;;;;5.30;4.43;;;;;;;18.34;52.76;98870.75;4993216;28;20180;-74
2023/12/01 08:04:44;;;;;;;6.07;4.87;;;;;;;18.38;52.69;98862.16;4977815;28;20563;-74
2023/12/01 08:07:10;;;;;;;5.80;4.50;;;;;;;18.41;52.75;98864.19;4993489;28;20660;-74
2023/12/01 08:09:36;;;;;;;5.60;4.63;;;;;;;18.38;52.69;98874.41;4997342;28;20205;-74
2023/12/01 08:12:03;;;;;;;5.13;4.20;;;;;;;18.38;52.61;98873.59;4998373;28;20184;-74
2023/12/01 08:14:29;;;;;;;4.90;3.90;;;;;;;18.39;52.72;98864.59;5017356;28;20769;-74
2023/12/01 08:16:54;;;;;;;5.77;4.40;;;;;;;18.41;52.64;98862.13;5001611;28;20450;-74
2023/12/01 08:19:20;;;;;;;5.70;4.33;;;;;;;18.41;52.74;98845.00;4982137;28;20189;-74
2023/12/01 08:21:45;;;;;;;5.20;4.67;;;;;;;18.43;52.62;98851.13;4990900;28;20186;-74
2023/12/01 08:24:11;;;;;;;5.40;4.20;;;;;;;18.44;52.47;98864.19;4974401;28;20174;-74
2023/12/01 08:26:37;;;;;;;5.50;4.20;;;;;;;18.42;52.83;98871.53;4974974;28;20248;-74
2023/12/01 08:29:03;;;;;;;4.70;4.17;;;;;;;18.38;52.72;98871.56;4976539;28;20220;-74
2023/12/01 08:31:28;;;;;;;6.23;4.20;;;;;;;18.42;52.66;98865.81;4979519;28;20422;-74
2023/12/01 08:33:54;;;;;;;5.67;4.13;;;;;;;18.43;52.36;98853.16;4993935;28;20240;-74
2023/12/01 08:36:19;;;;;;;4.93;3.93;;;;;;;18.42;52.48;98842.97;4989970;28;20188;-74
2023/12/01 08:38:44;;;;;;;5.30;4.00;;;;;;;18.38;52.67;98843.00;4974210;28;20184;-74
2023/12/01 08:41:10;;;;;;;5.63;4.67;;;;;;;18.40;52.83;98848.25;4959452;28;20189;-74
2023/12/01 08:43:36;;;;;;;4.93;4.17;;;;;;;18.42;52.40;98855.19;4992860;28;20818;-74
2023/12/01 08:46:02;;;;;;;4.30;3.90;;;;;;;18.39;53.06;98858.91;4974784;28;20594;-74
2023/12/01 08:48:28;;;;;;;6.07;4.20;;;;;;;18.38;52.42;98851.56;4992413;28;20241;-74
2023/12/01 08:50:53;;;;;;;5.50;4.37;;;;;;;18.40;52.69;98866.22;4974083;28;20530;-74
2023/12/01 08:53:19;;;;;;;6.00;3.93;;;;;;;18.40;52.80;98883.38;4975687;28;20189;-74
2023/12/01 08:55:45;;;;;;;5.70;4.23;;;;;;;18.40;52.81;98880.50;4972037;28;20187;-74
2023/12/01 08:58:11;;;;;;;6.00;4.50;;;;;;;18.37;52.55;98860.53;4991552;28;20438;-74
2023/12/01 09:00:36;;;;;;;5.57;4.20;;;;;;;18.39;52.98;98858.91;4975532;28;20444;-74
2023/12/01 09:03:02;;;;;;;4.00;3.37;;;;;;;18.36;53.08;98848.28;4966803;28;20587;-74
2023/12/01 09:05:27;;;;;;;6.17;4.30;;;;;;;18.37;52.95;98864.19;4960911;28;20173;-74
2023/12/01 09:07:53;;;;;;;5.70;4.03;;;;;;;18.39;53.03;98864.59;4974099;28;20212;-74
2023/12/01 09:10:22;;;;;;;5.00;4.10;;;;;;;18.37;53.03;98869.09;4975473;28;20208;-74
2023/12/01 09:12:48;;;;;;;6.10;4.40;;;;;;;18.39;52.90;98852.34;4992739;28;20185;-73
2023/12/01 09:15:14;;;;;;;6.17;4.07;;;;;;;18.36;53.00;98851.13;4976563;28;20452;-74
2023/12/01 09:17:39;;;;;;;5.07;3.70;;;;;;;18.42;52.59;98852.34;5010146;28;20447;-74
2023/12/01 09:20:08;;;;;;;4.53;3.60;;;;;;;18.40;52.69;98859.69;4991502;28;20292;-74
2023/12/01 09:22:34;;;;;;;5.40;4.23;;;;;;;18.36;52.57;98871.13;4961074;28;20200;-74
2023/12/01 09:25:00;;;;;;;5.00;4.23;;;;;;;18.37;53.33;98877.69;4961958;28;20420;-74
2023/12/01 09:27:25;;;;;;;5.57;4.30;;;;;;;18.35;52.96;98868.69;4989994;28;20477;-74
2023/12/01 09:29:51;;;;;;;5.00;4.40;;;;;;;18.33;52.98;98860.56;4973501;28;20224;-73
2023/12/01 09:32:19;;;;;;;5.80;3.90;;;;;;;18.34;53.09;98865.03;4997206;28;20182;-73
2023/12/01 09:34:44;;;;;;;5.50;3.73;;;;;;;18.36;53.04;98871.13;4971130;28;20256;-74
2023/12/01 09:37:09;;;;;;;7.23;4.23;;;;;;;18.34;53.09;98870.75;4978888;28;20435;-74
2023/12/01 09:39:35;;;;;;;4.40;3.40;;;;;;;18.38;52.71;98877.28;5010450;28;20179;-73
2023/12/01 09:42:03;;;;;;;5.13;3.63;;;;;;;18.39;52.86;98878.91;4994088;28;20172;-74
2023/12/01 09:44:29;;;;;;;5.50;4.10;;;;;;;18.40;53.04;98871.94;4961851;28;20530;-74
2023/12/01 09:46:54;;;;;;;4.90;3.60;;;;;;;18.41;52.75;98885.00;4976848;28;20425;-74
2023/12/01 09:49:20;;;;;;;4.77;3.93;;;;;;;18.43;53.05;98888.28;4961286;28;20252;-74
2023/12/01 09:51:46;;;;;;;5.07;4.03;;;;;;;18.44;52.84;98881.31;4979986;28;20220;-74
2023/12/01 09:54:12;;;;;;;5.33;3.97;;;;;;;18.44;52.88;98872.75;4979201;28;20792;-74
2023/12/01 09:56:37;;;;;;;4.60;3.70;;;;;;;18.45;52.80;98882.94;4963596;28;20427;-74
2023/12/01 09:59:03;;;;;;;4.60;3.97;;;;;;;18.44;52.69;98874.78;4979431;28;20188;-74
2023/12/01 10:01:28;;;;;;;5.10;4.10;;;;;;;18.47;52.87;98859.69;4962954;28;20184;-73
2023/12/01 10:03:53;;;;;;;4.90;3.47;;;;;;;18.42;52.94;98858.03;4970288;28;20193;-74
2023/12/01 10:06:19;;;;;;;4.40;3.90;;;;;;;18.46;53.12;98858.84;4978696;28;20183;-74
2023/12/01 10:08:44;;;;;;;4.40;3.80;;;;;;;18.47;52.82;98866.19;4962179;28;20202;-74
2023/12/01 10:11:23;;;;;;;4.60;3.63;;;;;;;18.43;52.69;98871.13;4991353;28;20193;-74
2023/12/01 10:13:49;;;;;;;6.00;4.00;;;;;;;18.43;52.89;98873.97;4979479;28;20256;-74
2023/12/01 10:16:16;;;;;;;4.40;3.97;;;;;;;18.42;53.25;98874.41;4995712;28;20474;-74
2023/12/01 10:18:58;;;;;;;5.03;4.10;;;;;;;18.45;53.06;98868.66;4976896;28;20439;-74
2023/12/01 10:21:44;;;;;;;4.60;3.57;;;;;;;18.46;52.98;98850.28;4978014;28;20432;-74
2023/12/01 10:24:13;;;;;;;5.23;3.90;;;;;;;18.42;52.94;98849.47;4995940;28;20459;-73
2023/12/01 10:26:39;;;;;;;6.50;3.47;;;;;;;18.43;52.87;98859.69;4993054;28;20446;-73
2023/12/01 10:29:06;;;;;;;6.87;3.93;;;;;;;18.42;52.98;98860.91;4972419;28;20463;-74
2023/12/01 10:31:32;;;;;;;5.57;3.83;;;;;;;18.43;52.40;98861.72;5021307;28;20188;-73
2023/12/01 10:33:57;;;;;;;4.07;3.20;;;;;;;18.42;52.57;98855.19;4976171;28;21194;-74
2023/12/01 10:36:22;;;;;;;4.47;3.70;;;;;;;18.43;52.85;98851.13;4976662;28;20201;-74
2023/12/01 10:38:48;;;;;;;4.20;3.50;;;;;;;18.43;53.08;98851.13;4994129;28;20181;-74
2023/12/01 10:41:13;;;;;;;4.40;3.53;;;;;;;18.40;52.99;98836.84;5012363;28;20187;-74
2023/12/01 10:43:39;;;;;;;5.23;3.90;;;;;;;18.42;52.98;98849.47;4978561;28;20193;-74
2023/12/01 10:46:05;;;;;;;4.80;3.50;;;;;;;18.43;53.00;98853.97;4977590;28;20168;-73
2023/12/01 10:48:32;;;;;;;5.07;3.37;;;;;;;18.43;52.91;98841.72;4961483;28;20205;-73
2023/12/01 10:50:57;;;;;;;4.27;3.23;;;;;;;18.40;53.46;98840.50;5029964;28;20788;-73
2023/12/01 10:53:24;;;;;;;4.90;3.60;;;;;;;18.39;53.30;98827.47;4994582;28;20418;-73
2023/12/01 10:55:50;;;;;;;5.20;3.53;;;;;;;18.42;52.98;98835.19;4994188;28;20201;-73
2023/12/01 10:58:24;;;;;;;5.93;4.30;;;;;;;18.41;53.29;98845.00;4964839;28;20494;-74
2023/12/01 11:00:50;;;;;;;4.47;3.47;;;;;;;18.43;52.96;98848.28;4992953;28;20648;-73
2023/12/01 11:03:18;;;;;;;4.60;3.53;;;;;;;18.43;53.09;98839.69;4984599;28;20434;-74
2023/12/01 11:05:43;;;;;;;5.93;4.10;;;;;;;18.43;52.78;98841.72;4976734;28;20192;-76
2023/12/01 11:08:33;;;;;;;4.83;3.80;;;;;;;18.44;52.96;98841.31;4976654;28;20424;-76
2023/12/01 11:11:17;;;;;;;4.60;3.33;;;;;;;18.46;52.75;98830.28;4966124;28;20637;-76
2023/12/01 11:14:08;;;;;;;5.17;3.70;;;;;;;18.44;52.84;98804.16;4973256;28;20429;-76
2023/12/01 11:16:33;;;;;;;4.47;3.40;;;;;;;18.45;52.93;98799.25;4988510;28;21034;-75
2023/12/01 11:18:59;;;;;;;5.07;3.70;;;;;;;18.45;52.65;98804.97;4976535;28;20436;-76
2023/12/01 11:21:24;;;;;;;5.77;4.37;;;;;;;18.46;52.80;98815.97;4991866;28;20247;-76
2023/12/01 11:23:50;;;;;;;4.97;3.90;;;;;;;18.50;52.72;98808.22;4976298;28;20212;-76
2023/12/01 11:26:16;;;;;;;4.83;3.60;;;;;;;18.51;52.85;98809.03;4990793;28;20195;-76
2023/12/01 11:34:12;;;;;;;4.23;3.60;;;;;;;18.52;52.83;98804.94;4989786;28;20232;-76